Andover, NJ

11:21 PM EDT on August 22, 2017 (GMT -0400)
Newton, NJ | | Change Station
Active Advisory: Severe Thunderstorm Watch

Elev 682 ft 41.05 °N, 74.76 °W | Updated 2 seconds ago

Overcast
Overcast
70.5 °F
Feels Like 70.5 °F
N
0.0
Wind Variable Wind from SSW
Gusts 0.0 mph

Today
High -- | Low -- °F
--% Chance of Precip.
Yesterday
High -- | Low -- °F
Precip. -- in
Pressure 29.78 in
Visibility 10.0 miles
Clouds Few 1900 ft
Scattered Clouds 8000 ft
Mostly Cloudy 10000 ft
Dew Point 70 °F
Humidity 99%
Rainfall 0.05 in
Snow Depth Not available.
6:15 AM 7:46 PM
New Moon, 2% visible
SPECI KFWN 230312Z AUTO 23004KT 10SM FEW019 SCT080 BKN100 22/21 A2978 RMK AO2 LTG DSNT E T02220211
Pressure 29.78 in
Visibility 10.0 miles
Clouds Few 1900 ft
Scattered Clouds 8000 ft
Mostly Cloudy 10000 ft
Dew Point 70 °F
Humidity 99%
Rainfall 0.05 in
Snow Depth Not available.
6:15 AM 7:46 PM
New Moon, 2% visible
SPECI KFWN 230312Z AUTO 23004KT 10SM FEW019 SCT080 BKN100 22/21 A2978 RMK AO2 LTG DSNT E T02220211

Get Your Daily Forecast Email!

Thanks for signing up!

Be on the lookout for a verification email in your inbox.

You'll start receiving severe weather alerts in your inbox..

×

10-Day Weather Forecast

Almanac

Astronomy

Aug. 22, 2017 Rise Set
Actual Time
Civil Twilight
Nautical Twilight
Astronomical Twilight
Moon
Length of Visible Light
Length of Day
Tomorrow will be .
, % of the Moon is Illuminated

Today's Extremes

State Highs State Lows

Community

WunderPhotos

Category 6

Welcome to Category 6. This is the collective home for Weather Underground's featured writeups by Dr. Jeff Masters (right), Bob Henson (left), Chris Burt, and other regular contributors.

Nearby

Air Quality

  Air Quality AQ Index Pollutant
Not available.

Snow Depth

Station Depth Elevation

Earthquake Activity

City Distance Mag. Time & Date
Minimum magnitude displayed is 2.5.

Coastal Water Temperatures

Place Temperature

Stations

Nearby Weather Stations

Station Location Temp. Windchill Dew Point Humidity Wind Precip. Elev Updated Type
                   

Watches & Warnings

Severe Thunderstorm Watch
Issued: 11:05 PM EDT Aug. 22, 2017 – National Weather Service


The National Weather Service has cancelled Severe Thunderstorm
Watch 464 for the following areas

In New Jersey this cancels 2 counties

In northern New Jersey

Sussex Warren

In Pennsylvania this cancels 3 counties

In east central Pennsylvania

Berks Lehigh Northampton

This includes the cities of Allentown, Bethlehem, Blairstown,
Easton, Newton, and reading.